Flight Track Log - Related Links

Times and Time Zones

All times are in EDT time to prevent confusion due to time zone crossing. See the UAL582 flight status page for this flight to view local times or setup timezone preferences in your user account.

Time Position Orientation Groundspeed Altitude Reporting Facility
EDT Latitude Longitude Course Direction KTS MPH feet Rate Location/Type
Tue 05:04:53 PM 43.6833 -79.6333 278° West 150 173 2,000  Level Toronto Center
Tue 05:05:53 PM 43.7333 -79.6833 324° Northwest 190 219 3,900 1,500 Climbing Toronto Center
Tue 05:06:53 PM 43.7667 -79.7500 305° West 240 276 5,000 750 Climbing Toronto Center
Tue 05:07:53 PM 43.7667 -79.8333 270° West 230 265 5,400 1,650 Climbing Toronto Center
Tue 05:08:00 PM 43.6835 -80.0674 283° West  Level FlightAware Approximate
Tue 05:08:53 PM 43.7500 -79.9333 257° West 230 265 8,300  Level Toronto Center
Tue 05:09:00 PM 43.7000 -80.1797 270° West  Level FlightAware Approximate
Tue 05:09:53 PM 43.7500 -80.0000 270° West 230 265 11,300  Level Toronto Center
Tue 05:10:00 PM 43.7094 -80.3105 278° West  Level FlightAware Approximate
Tue 05:10:53 PM 43.7500 -80.1167 270° West 270 311 13,700  Level Toronto Center
Tue 05:11:53 PM 43.7500 -80.2333 270° West 290 334 16,600 2,700 Climbing Toronto Center
Tue 05:12:53 PM 43.7500 -80.3500 270° West 290 334 19,100 2,450 Climbing Toronto Center
Tue 05:13:53 PM 43.7500 -80.4667 270° West 300 345 21,500 2,200 Climbing Toronto Center
Tue 05:14:53 PM 43.7333 -80.5833 259° West 300 345 23,500 1,900 Climbing Toronto Center
Tue 05:15:53 PM 43.7167 -80.7000 259° West 310 357 25,300 1,700 Climbing Toronto Center
Tue 05:16:53 PM 43.6833 -80.8167 248° West 320 368 26,900 1,350 Climbing Toronto Center
Tue 05:17:53 PM 43.6500 -80.9500 251° West 330 380 28,000 900 Climbing Toronto Center
Tue 05:18:53 PM 43.6167 -81.0667 248° West 350 403 28,700 1,050 Climbing Toronto Center
Tue 05:19:53 PM 43.5833 -81.2000 251° West 370 426 30,100 1,400 Climbing Toronto Center
Tue 05:20:53 PM 43.5667 -81.3333 260° West 370 426 31,500 950 Climbing Toronto Center
Tue 05:21:53 PM 43.5333 -81.4667 251° West 360 414 32,000 250 Climbing Toronto Center
Tue 05:22:53 PM 43.5000 -81.6167 253° West 360 414 32,000  Level Toronto Center
Tue 05:23:53 PM 43.4833 -81.7167 257° West 360 414 32,000  Level Toronto Center
Tue 05:24:53 PM 43.4500 -81.8667 253° West 360 414 32,000  Level Toronto Center
Tue 05:25:53 PM 43.4000 -81.9667 235° Southwest 360 414 32,000  Level Toronto Center
Tue 05:26:53 PM 43.3833 -82.1167 261° West 360 414 32,000  Level Toronto Center
Tue 05:27:53 PM 43.3500 -82.2500 251° West 360 414 32,000 -100 Level Toronto Center
Tue 05:28:53 PM 43.3167 -82.3833 251° West 360 414 31,800 -550 Descending Toronto Center
Tue 05:29:53 PM 43.3000 -82.5167 260° West 360 414 30,900 -900 Descending Toronto Center
Tue 05:30:53 PM 43.2667 -82.6333 249° West 370 426 30,000 -509 Descending Toronto Center
Tue 05:31:39 PM 43.2442 -82.7519 255° West 362 417 30,000  Level Cleveland Center
Tue 05:32:39 PM 43.2106 -82.8847 251° West 362 417 30,000  Level Cleveland Center
Tue 05:33:39 PM 43.1722 -83.0172 248° West 368 423 30,000  Level Cleveland Center
Tue 05:34:39 PM 43.1361 -83.1467 249° West 368 423 30,000  Level Cleveland Center
Tue 05:35:39 PM 43.0978 -83.2758 248° West 368 423 30,000  Level Cleveland Center
Tue 05:36:39 PM 43.0633 -83.4078 250° West 368 423 30,000  Level Cleveland Center
Tue 05:37:39 PM 43.0267 -83.5397 249° West 368 423 30,000  Level Cleveland Center
Tue 05:38:39 PM 42.9881 -83.6600 246° West 373 429 30,000  Level Cleveland Center
Tue 05:39:39 PM 42.9614 -83.7947 255° West 373 429 30,000  Level Cleveland Center
Tue 05:40:39 PM 42.9469 -83.9389 262° West 373 429 30,000  Level Cleveland Center
Tue 05:41:39 PM 42.9344 -84.0800 263° West 378 435 30,000  Level Cleveland Center
Tue 05:43:21 PM 42.9108 -84.3144 262° West 377 434 30,000  Level Chicago Center
Tue 05:44:23 PM 42.8972 -84.4550 263° West 376 433 30,000  Level Chicago Center
Tue 05:45:26 PM 42.8800 -84.6225 262° West 374 430 30,000  Level Chicago Center
Tue 05:46:28 PM 42.8658 -84.7636 262° West 376 433 30,000  Level Chicago Center
Tue 05:47:30 PM 42.8500 -84.9064 261° West 381 438 30,000  Level Chicago Center
Tue 05:48:32 PM 42.8353 -85.0481 262° West 380 437 30,000  Level Chicago Center
Tue 05:49:34 PM 42.8203 -85.1903 262° West 379 436 30,000  Level Chicago Center
Tue 05:50:36 PM 42.8044 -85.3350 262° West 385 443 30,000  Level Chicago Center
Tue 05:51:38 PM 42.7847 -85.5064 261° West 383 441 30,000 -97 Level Chicago Center
Tue 05:52:40 PM 42.7592 -85.6475 256° West 383 441 29,800 -532 Descending Chicago Center
Tue 05:53:42 PM 42.7336 -85.7858 256° West 377 434 28,900 -1,597 Descending Chicago Center
Tue 05:54:44 PM 42.7092 -85.9239 256° West 374 430 26,500 -2,352 Descending Chicago Center
Tue 05:55:47 PM 42.6842 -86.0603 256° West 372 428 24,000 -2,400 Descending Chicago Center
Tue 05:56:49 PM 42.6603 -86.1917 256° West 362 417 21,500 -1,935 Descending Chicago Center
Tue 05:57:51 PM 42.6367 -86.3189 256° West 352 405 20,000 -726 Descending Chicago Center
Tue 05:58:53 PM 42.6133 -86.4417 256° West 339 390 20,000  Level Chicago Center
Tue 05:59:55 PM 42.5847 -86.5936 256° West 345 397 20,000 -290 Level Chicago Center
Tue 06:00:57 PM 42.5647 -86.7064 256° West 343 395 19,400 -1,008 Descending Chicago Center
Tue 06:02:00 PM 42.5269 -86.8506 250° West 339 390 17,900 -1,632 Descending Chicago Center
Tue 06:03:02 PM 42.4986 -86.9561 250° West 331 381 16,000 -2,081 Descending Chicago Center
Tue 06:04:04 PM 42.4661 -87.0672 248° West 319 367 13,600 -2,661 Descending Chicago Center
Tue 06:05:06 PM 42.4308 -87.2000 250° West 314 361 10,500 -1,742 Descending Chicago Center
Tue 06:06:08 PM 42.3989 -87.3139 249° West 323 372 10,000 -242 Descending Chicago Center
Tue 06:07:10 PM 42.3661 -87.4331 250° West 321 369 10,000  Level Chicago Center
Tue 06:08:12 PM 42.3322 -87.5444 248° West 324 373 10,000  Level Chicago Center
Tue 06:09:14 PM 42.2589 -87.6192 217° Southwest 332 382 10,000  Level Chicago Center
Tue 06:10:16 PM 42.1867 -87.6953 218° Southwest 333 383 10,000 55 Level Chicago Center
Tue 06:11:03 PM 42.1167 -87.7667 217° Southwest 326 375 10,100 -53 Climbing Chicago TRACON
Tue 06:12:10 PM 42.0667 -87.8667 236° Southwest 264 304 9,900 -793 Descending Chicago TRACON
Tue 06:13:04 PM 42.0667 -87.9500 270° West 264 304 8,500 -1,000 Descending Chicago TRACON
Tue 06:14:04 PM 42.0667 -88.0333 270° West 197 227 8,000 -1,550 Descending Chicago TRACON
Tue 06:15:04 PM 42.0667 -88.1000 270° West 189 217 5,400 -1,947 Descending Chicago TRACON
Tue 06:15:58 PM 42.0500 -88.1667 251° West 200 230 4,300 -1,059 Descending Chicago TRACON
Tue 06:16:29 PM 42.0356 -88.1706 191° South 195 224 3,900 -323 Descending Chicago Center
Tue 06:17:31 PM 41.9867 -88.1294 148° Southeast 191 220 3,800 -97 Descending Chicago Center

Login

Don't have an account? Register now (free) for customized features, flight alerts, and more!